Time;durP1;ratioP1;P1;durP2;ratioP2;P2;SDS_P1;SDS_P2;PMS_P1;PMS_P2;Temp;Humidity;BMP_temperature;BMP_pressure;BME280_temperature;BME280_humidity;BME280_pressure;Samples;Min_cycle;Max_cycle;Signal;HPM_P1;HPM_P2
2021/01/07 00:00:15;;;;;;;2.63;1.20;;;;;;;25.12;38.84;98014.13;4992323;28;20730;-68
2021/01/07 00:02:41;;;;;;;11.57;1.70;;;;;;;25.02;40.31;98021.63;4991960;28;20212;-68
2021/01/07 00:05:08;;;;;;;8.80;1.98;;;;;;;25.08;39.96;98014.69;4992859;28;20264;-69
2021/01/07 00:07:34;;;;;;;5.72;1.30;;;;;;;25.00;38.49;98021.00;4993103;28;20633;-69
2021/01/07 00:10:01;;;;;;;3.53;1.20;;;;;;;25.12;39.58;98019.50;4992672;28;20223;-69
2021/01/07 00:12:27;;;;;;;9.77;1.13;;;;;;;25.10;37.68;98026.06;4991997;28;20213;-69
2021/01/07 00:14:53;;;;;;;6.00;1.52;;;;;;;25.05;39.50;98018.59;4992802;28;20292;-69
2021/01/07 00:17:20;;;;;;;4.03;1.40;;;;;;;24.99;38.41;98023.84;4990954;28;20777;-67
2021/01/07 00:19:46;;;;;;;5.35;1.30;;;;;;;25.06;38.69;98025.59;4992143;28;20236;-69
2021/01/07 00:22:12;;;;;;;4.53;1.40;;;;;;;25.17;38.20;98020.78;4991558;28;20207;-69
2021/01/07 00:24:38;;;;;;;5.70;1.30;;;;;;;25.19;39.09;98029.44;4991420;28;20558;-69
2021/01/07 00:27:05;;;;;;;7.28;1.48;;;;;;;25.33;38.69;98025.94;4991469;28;20209;-67
2021/01/07 00:29:31;;;;;;;2.78;1.10;;;;;;;25.35;38.66;98023.91;4991131;28;20221;-69
2021/01/07 00:31:57;;;;;;;4.13;1.40;;;;;;;25.30;39.19;98020.97;4991227;28;20355;-69
2021/01/07 00:34:24;;;;;;;4.03;1.13;;;;;;;25.42;37.84;98013.28;4990978;28;20201;-68
2021/01/07 00:36:55;;;;;;;6.72;0.95;;;;;;;25.36;38.53;98020.19;4991178;28;20229;-68
2021/01/07 00:39:21;;;;;;;14.20;1.23;;;;;;;25.36;38.25;98014.84;4993102;28;20316;-69
2021/01/07 00:41:51;;;;;;;3.03;1.15;;;;;;;25.42;37.84;98022.13;4990387;28;20209;-68
2021/01/07 00:44:17;;;;;;;3.17;1.35;;;;;;;25.34;38.04;98026.75;4993483;28;20209;-68
2021/01/07 00:46:43;;;;;;;2.28;1.10;;;;;;;25.40;38.61;98026.03;4991083;28;20532;-69
2021/01/07 00:49:09;;;;;;;3.83;1.02;;;;;;;25.41;36.94;98023.13;4990899;28;20320;-68
2021/01/07 00:51:36;;;;;;;4.18;1.48;;;;;;;25.37;38.64;98021.84;4992323;28;20202;-68
2021/01/07 00:54:03;;;;;;;3.47;1.10;;;;;;;25.33;38.52;98020.59;4989766;28;20723;-69
2021/01/07 00:56:34;;;;;;;3.90;1.10;;;;;;;25.36;38.18;98017.50;4991990;28;20235;-69
2021/01/07 00:59:00;;;;;;;3.42;1.20;;;;;;;25.32;39.22;98018.91;4992718;28;20247;-69
2021/01/07 01:01:26;;;;;;;1.90;1.17;;;;;;;25.26;38.02;98019.63;4991000;28;20201;-68
2021/01/07 01:03:53;;;;;;;3.03;0.80;;;;;;;25.32;38.00;98018.91;4990472;28;20668;-68
2021/01/07 01:06:19;;;;;;;4.53;1.08;;;;;;;25.32;39.30;98018.09;4991190;28;20201;-68
2021/01/07 01:08:46;;;;;;;2.50;0.95;;;;;;;25.24;38.65;98019.00;4990311;28;20610;-69
2021/01/07 01:11:12;;;;;;;2.55;1.00;;;;;;;25.30;38.74;98013.75;4990643;28;20220;-69
2021/01/07 01:13:38;;;;;;;2.45;1.35;;;;;;;25.28;39.14;98025.66;4989821;28;20537;-68
2021/01/07 01:16:04;;;;;;;1.60;0.80;;;;;;;25.25;38.66;98018.81;4991519;28;20317;-68
2021/01/07 01:18:30;;;;;;;3.17;1.10;;;;;;;25.23;38.72;98020.88;4991099;28;20240;-69
2021/01/07 01:20:56;;;;;;;1.45;0.93;;;;;;;25.18;38.25;98017.06;4989650;28;20292;-68
2021/01/07 01:23:22;;;;;;;4.47;1.15;;;;;;;25.17;38.26;98015.44;4991003;28;20266;-68
2021/01/07 01:25:49;;;;;;;1.80;0.98;;;;;;;25.21;38.39;98016.69;4990515;28;20235;-68
2021/01/07 01:28:15;;;;;;;4.57;1.10;;;;;;;25.20;38.36;98028.44;4990668;28;20612;-68
2021/01/07 01:30:41;;;;;;;1.73;1.00;;;;;;;25.15;37.79;98022.78;4990371;28;20227;-68
2021/01/07 01:33:07;;;;;;;4.40;1.00;;;;;;;25.17;38.56;98032.31;4990261;28;20209;-68
2021/01/07 01:35:34;;;;;;;3.25;0.98;;;;;;;25.05;38.81;98029.28;4989619;28;20229;-68
2021/01/07 01:38:00;;;;;;;5.97;1.42;;;;;;;24.98;38.82;98025.72;4989831;28;20707;-68
2021/01/07 01:40:26;;;;;;;3.63;1.25;;;;;;;24.97;38.19;98026.72;4990738;28;20201;-68
2021/01/07 01:42:53;;;;;;;2.28;1.00;;;;;;;24.95;39.38;98034.09;4990759;28;20219;-68
2021/01/07 01:45:19;;;;;;;2.75;1.17;;;;;;;24.86;38.97;98035.22;4989803;28;20296;-68
2021/01/07 01:47:45;;;;;;;1.30;0.90;;;;;;;24.89;36.97;98030.31;4989835;28;20380;-68
2021/01/07 01:50:12;;;;;;;3.30;1.02;;;;;;;24.86;39.19;98021.84;4990426;28;20256;-67
2021/01/07 01:52:38;;;;;;;3.08;1.02;;;;;;;24.81;39.09;98032.25;4988096;28;20259;-68
2021/01/07 01:55:05;;;;;;;0.85;0.80;;;;;;;24.81;39.12;98035.75;4990020;28;20205;-68
2021/01/07 01:57:32;;;;;;;3.42;1.10;;;;;;;24.80;38.14;98030.59;4990332;28;20229;-68
2021/01/07 01:59:59;;;;;;;1.73;0.90;;;;;;;24.70;39.36;98034.38;4991317;28;20240;-68
2021/01/07 02:02:26;;;;;;;2.33;1.05;;;;;;;24.67;38.80;98025.91;4990046;28;20310;-68
2021/01/07 02:04:52;;;;;;;2.03;0.93;;;;;;;24.75;39.16;98028.50;4988628;28;20642;-68
2021/01/07 02:07:22;;;;;;;3.20;1.02;;;;;;;24.73;39.55;98030.50;4989051;28;20226;-68
2021/01/07 02:09:49;;;;;;;2.88;0.80;;;;;;;24.71;39.42;98029.88;4991794;28;20761;-68
2021/01/07 02:12:15;;;;;;;1.58;0.88;;;;;;;24.70;38.49;98028.22;4990984;28;20205;-68
2021/01/07 02:14:42;;;;;;;2.65;1.00;;;;;;;24.62;40.23;98034.47;4990424;28;20202;-68
2021/01/07 02:17:10;;;;;;;2.35;1.05;;;;;;;24.61;39.85;98029.31;4988136;28;20229;-68
2021/01/07 02:19:36;;;;;;;2.25;0.93;;;;;;;24.64;39.18;98027.09;4991278;28;20224;-68
2021/01/07 02:22:04;;;;;;;2.13;0.80;;;;;;;24.57;39.32;98031.53;4988563;28;20256;-68
2021/01/07 02:24:30;;;;;;;1.42;0.77;;;;;;;24.60;39.41;98039.19;4988903;28;20759;-67
2021/01/07 02:27:00;;;;;;;2.30;0.80;;;;;;;24.54;38.51;98031.88;4991037;28;20201;-68
2021/01/07 02:29:26;;;;;;;2.88;0.77;;;;;;;24.58;39.62;98033.22;4991387;28;20312;-68
2021/01/07 02:31:52;;;;;;;2.92;1.00;;;;;;;24.54;40.03;98031.88;4989344;28;20208;-68
2021/01/07 02:34:18;;;;;;;0.95;0.55;;;;;;;24.50;38.92;98034.09;4990053;28;20618;-68
2021/01/07 02:36:45;;;;;;;4.35;0.98;;;;;;;24.50;40.15;98034.09;4989251;28;20225;-69
2021/01/07 02:39:12;;;;;;;4.40;1.02;;;;;;;24.39;42.03;98031.84;4990444;28;20225;-70
2021/01/07 02:41:38;;;;;;;5.50;0.70;;;;;;;24.37;42.40;98032.03;4989529;28;20259;-70
2021/01/07 02:44:04;;;;;;;6.68;1.00;;;;;;;24.37;42.55;98025.88;4989500;28;20209;-70
2021/01/07 02:46:30;;;;;;;2.47;1.02;;;;;;;24.27;43.25;98026.13;4989320;28;20292;-68
2021/01/07 02:48:56;;;;;;;2.50;0.77;;;;;;;24.22;43.57;98020.50;4991078;28;20221;-69
2021/01/07 02:51:22;;;;;;;3.65;1.30;;;;;;;24.20;43.58;98025.22;4989034;28;20494;-70
2021/01/07 02:53:48;;;;;;;1.75;0.80;;;;;;;24.20;43.80;98023.34;4989134;28;20209;-70
2021/01/07 02:56:15;;;;;;;1.30;0.90;;;;;;;24.15;44.04;98014.25;4991025;28;20275;-69
2021/01/07 02:58:41;;;;;;;6.93;1.55;;;;;;;24.15;42.71;98016.91;4988989;28;20228;-69
2021/01/07 03:01:07;;;;;;;2.88;0.98;;;;;;;24.21;43.37;98016.16;4988964;28;20209;-69
2021/01/07 03:03:33;;;;;;;8.77;1.00;;;;;;;24.13;43.43;98016.25;4988782;28;20205;-70
2021/01/07 03:06:00;;;;;;;2.35;0.90;;;;;;;24.09;43.83;98023.78;4988878;28;20223;-69
2021/01/07 03:08:26;;;;;;;4.30;0.88;;;;;;;24.16;42.67;98018.56;4986857;28;20225;-69
2021/01/07 03:10:52;;;;;;;5.43;0.80;;;;;;;24.05;43.02;98016.31;4989685;28;20212;-69
2021/01/07 03:13:19;;;;;;;1.25;0.63;;;;;;;24.07;43.27;98014.31;4988905;28;20209;-70
2021/01/07 03:15:45;;;;;;;2.15;0.90;;;;;;;24.04;42.37;98015.50;4989608;28;20589;-70
2021/01/07 03:18:11;;;;;;;2.78;0.57;;;;;;;24.08;43.63;98015.97;4993340;28;20644;-70
2021/01/07 03:20:37;;;;;;;4.45;0.90;;;;;;;24.05;42.81;98016.31;4993607;28;20265;-69
2021/01/07 03:23:04;;;;;;;2.05;1.10;;;;;;;24.02;43.12;98018.34;4993013;28;20202;-70
2021/01/07 03:25:31;;;;;;;3.05;0.75;;;;;;;24.09;41.86;98017.63;4994221;28;20696;-70
2021/01/07 03:27:57;;;;;;;1.67;0.70;;;;;;;24.03;43.41;98013.81;4992469;28;20209;-69
2021/01/07 03:30:24;;;;;;;1.88;0.80;;;;;;;24.05;43.48;98017.16;4992824;28;20209;-70
2021/01/07 03:32:50;;;;;;;2.15;0.80;;;;;;;24.02;43.41;98014.84;4991661;28;20209;-66
2021/01/07 03:35:16;;;;;;;2.60;0.80;;;;;;;23.99;41.19;98008.03;4994757;28;20201;-69
2021/01/07 03:37:42;;;;;;;2.60;0.70;;;;;;;24.02;42.84;98014.84;4992629;28;20229;-69
2021/01/07 03:40:09;;;;;;;1.33;0.77;;;;;;;24.03;42.77;98008.47;4992154;28;20317;-70
2021/01/07 03:42:35;;;;;;;0.80;0.68;;;;;;;24.02;43.69;98012.19;4993312;28;20300;-70
2021/01/07 03:45:01;;;;;;;1.42;0.70;;;;;;;24.04;43.21;97998.66;4992994;28;20205;-70
2021/01/07 03:47:28;;;;;;;1.55;0.80;;;;;;;24.08;42.56;98002.59;4992450;28;20256;-70
2021/01/07 03:49:54;;;;;;;1.23;0.70;;;;;;;24.10;42.28;98003.25;4992011;28;20232;-69
2021/01/07 03:52:20;;;;;;;1.08;0.77;;;;;;;24.11;42.54;98000.41;4993281;28;20649;-69
2021/01/07 03:54:46;;;;;;;2.97;0.80;;;;;;;24.08;42.10;97998.13;4991369;28;20233;-69
2021/01/07 03:57:12;;;;;;;2.47;1.13;;;;;;;24.07;43.17;97995.63;4991751;28;20221;-69
2021/01/07 03:59:39;;;;;;;1.05;0.77;;;;;;;24.10;42.22;97993.41;4992031;28;20225;-69
2021/01/07 04:02:05;;;;;;;1.13;0.95;;;;;;;24.08;41.87;97991.94;4991619;28;20407;-69
2021/01/07 04:04:32;;;;;;;0.82;0.70;;;;;;;24.00;42.14;97996.34;4992197;28;20206;-70
2021/01/07 04:06:58;;;;;;;1.45;0.85;;;;;;;23.99;42.43;97996.53;4993146;28;20288;-70
2021/01/07 04:09:24;;;;;;;1.05;0.80;;;;;;;24.01;42.20;97994.50;4992897;28;20243;-68
2021/01/07 04:11:50;;;;;;;0.95;0.80;;;;;;;24.00;42.85;97993.66;4992782;28;20219;-69
2021/01/07 04:14:16;;;;;;;3.15;1.10;;;;;;;23.95;42.86;97990.72;4993554;28;20259;-69
2021/01/07 04:16:42;;;;;;;1.38;0.88;;;;;;;23.94;41.93;97996.25;4992197;28;20229;-69
2021/01/07 04:19:08;;;;;;;1.35;0.82;;;;;;;23.95;43.01;97997.91;4991124;28;20307;-70
2021/01/07 04:21:45;;;;;;;0.88;0.63;;;;;;;23.89;43.15;98001.28;4992920;28;20356;-70
2021/01/07 04:24:11;;;;;;;2.00;1.08;;;;;;;23.94;42.52;97999.72;4995152;28;20211;-70
2021/01/07 04:26:39;;;;;;;1.48;0.70;;;;;;;23.87;42.37;97987.31;4991183;28;20212;-69
2021/01/07 04:29:05;;;;;;;1.15;0.70;;;;;;;23.85;43.03;97984.81;4992410;28;20708;-69
2021/01/07 04:31:31;;;;;;;4.43;0.70;;;;;;;23.89;41.71;97993.28;4992256;28;20252;-69
2021/01/07 04:33:57;;;;;;;1.40;0.60;;;;;;;23.82;42.20;97985.97;4991280;28;20201;-69
2021/01/07 04:36:23;;;;;;;1.35;0.77;;;;;;;23.79;42.77;97988.16;4991542;28;20276;-68
2021/01/07 04:38:50;;;;;;;0.50;0.50;;;;;;;23.86;42.50;97991.78;4990020;28;20229;-69
2021/01/07 04:41:16;;;;;;;4.15;1.38;;;;;;;23.90;43.01;97987.75;4992922;28;20205;-70
2021/01/07 04:43:43;;;;;;;0.50;0.50;;;;;;;23.91;42.97;97991.25;4991233;28;20213;-69
2021/01/07 04:46:09;;;;;;;2.05;0.50;;;;;;;24.00;42.70;97990.19;4991760;28;20313;-70
2021/01/07 04:48:36;;;;;;;1.63;0.50;;;;;;;24.05;42.75;97989.63;4991407;28;20225;-68
2021/01/07 04:51:03;;;;;;;1.52;0.70;;;;;;;24.02;41.56;97996.16;4991009;28;20315;-70
2021/01/07 04:53:29;;;;;;;0.88;0.60;;;;;;;24.07;41.45;97999.13;4992954;28;20223;-70
2021/01/07 04:55:57;;;;;;;0.80;0.60;;;;;;;24.13;42.07;97989.53;4990579;28;20711;-69
2021/01/07 04:58:23;;;;;;;1.10;0.50;;;;;;;24.13;41.99;97997.53;4992289;28;20275;-69
2021/01/07 05:00:49;;;;;;;2.42;0.80;;;;;;;24.16;41.46;97995.38;4990442;28;20240;-69
2021/01/07 05:03:20;;;;;;;2.03;0.60;;;;;;;24.22;41.03;98009.00;4991178;28;20231;-69
2021/01/07 05:05:49;;;;;;;0.75;0.57;;;;;;;24.25;41.71;97993.44;4992181;28;20216;-69
2021/01/07 05:08:17;;;;;;;1.00;0.60;;;;;;;24.27;41.65;98003.94;4990998;28;20577;-69
2021/01/07 05:10:43;;;;;;;2.45;0.70;;;;;;;24.27;41.80;97998.59;4992101;28;20207;-69
2021/01/07 05:13:10;;;;;;;2.63;0.75;;;;;;;24.30;40.94;97999.06;4992169;28;20533;-69
2021/01/07 05:15:40;;;;;;;0.65;0.60;;;;;;;24.31;41.54;97992.69;4990564;28;20201;-69
2021/01/07 05:18:06;;;;;;;1.02;0.70;;;;;;;24.34;40.78;97997.66;4990194;28;20263;-68
2021/01/07 05:20:32;;;;;;;1.23;0.75;;;;;;;24.33;41.52;97998.69;4990346;28;20209;-70
2021/01/07 05:23:00;;;;;;;1.80;0.68;;;;;;;24.31;41.78;97990.00;4989260;28;20205;-69
2021/01/07 05:25:29;;;;;;;2.00;0.68;;;;;;;24.32;41.88;97994.34;4991079;28;20217;-69
2021/01/07 05:27:55;;;;;;;1.00;0.70;;;;;;;24.38;40.52;97993.63;4992996;28;20240;-70
2021/01/07 05:30:26;;;;;;;1.65;0.70;;;;;;;24.38;41.45;97990.97;4992019;28;20296;-69
2021/01/07 05:32:58;;;;;;;1.33;0.90;;;;;;;24.41;41.33;97994.28;4991153;28;20211;-70
2021/01/07 05:35:24;;;;;;;1.35;0.70;;;;;;;24.38;40.84;98000.78;4991367;28;20224;-69
2021/01/07 05:37:50;;;;;;;0.63;0.55;;;;;;;24.29;41.44;97997.38;4991070;28;20233;-70
2021/01/07 05:40:16;;;;;;;1.80;0.68;;;;;;;24.34;41.46;97992.31;4989534;28;20302;-69
2021/01/07 05:42:44;;;;;;;0.90;0.50;;;;;;;24.32;41.84;97994.34;4989699;28;20299;-69
2021/01/07 05:45:12;;;;;;;0.55;0.40;;;;;;;24.34;41.34;97995.00;4992668;28;20243;-69
2021/01/07 05:47:41;;;;;;;1.27;0.70;;;;;;;24.31;41.35;97990.00;4991072;28;20584;-70
2021/01/07 05:50:08;;;;;;;1.02;0.60;;;;;;;24.39;41.56;98000.63;4992029;28;20226;-69
2021/01/07 05:52:41;;;;;;;0.73;0.50;;;;;;;24.41;40.92;97996.94;4989257;28;20210;-69
2021/01/07 05:55:09;;;;;;;0.85;0.60;;;;;;;24.46;41.29;97992.69;4991967;28;20205;-69
2021/01/07 05:57:37;;;;;;;1.75;0.50;;;;;;;24.46;41.36;97992.69;4990345;28;20291;-69
2021/01/07 06:00:05;;;;;;;0.80;0.60;;;;;;;24.44;40.71;97989.38;4990425;28;20243;-69
2021/01/07 06:02:35;;;;;;;0.75;0.60;;;;;;;24.42;41.68;97994.09;4991519;28;20201;-69
2021/01/07 06:05:03;;;;;;;0.82;0.70;;;;;;;24.45;41.36;97990.19;4991737;28;20266;-70
2021/01/07 06:07:31;;;;;;;0.80;0.50;;;;;;;24.41;41.37;97988.94;4990425;28;20205;-69
2021/01/07 06:09:59;;;;;;;0.50;0.43;;;;;;;24.39;40.81;97997.13;4991796;28;20325;-69
2021/01/07 06:12:26;;;;;;;2.15;0.70;;;;;;;24.37;41.16;97999.97;4991362;28;20240;-70
2021/01/07 06:14:52;;;;;;;0.85;0.55;;;;;;;24.38;41.75;97988.28;4990320;28;20353;-69
2021/01/07 06:17:21;;;;;;;1.10;0.73;;;;;;;24.37;41.45;97994.63;4988945;28;20294;-70
2021/01/07 06:19:52;;;;;;;1.23;0.80;;;;;;;24.38;40.56;97993.63;4988987;28;20233;-70
2021/01/07 06:22:20;;;;;;;1.10;0.57;;;;;;;24.50;41.49;97993.19;4991497;28;20296;-70
2021/01/07 06:24:51;;;;;;;1.58;0.80;;;;;;;24.49;40.54;97992.31;4991166;28;20219;-70
2021/01/07 06:27:23;;;;;;;0.65;0.60;;;;;;;24.48;41.10;98000.53;4991745;28;20775;-69
2021/01/07 06:29:49;;;;;;;1.08;0.50;;;;;;;24.43;41.80;98000.25;4991359;28;20229;-70
2021/01/07 06:32:18;;;;;;;2.42;0.60;;;;;;;24.52;40.34;97994.63;4990391;28;20205;-70
2021/01/07 06:34:45;;;;;;;1.48;0.50;;;;;;;24.53;40.37;97993.63;4988963;28;20768;-70
2021/01/07 06:37:11;;;;;;;1.58;0.73;;;;;;;24.53;41.36;97998.13;4989939;28;20596;-69
2021/01/07 06:39:46;;;;;;;1.25;0.70;;;;;;;24.52;40.73;97993.81;4989210;28;20635;-70
2021/01/07 06:42:18;;;;;;;0.70;0.63;;;;;;;24.51;40.48;98000.97;4991438;28;20219;-69
2021/01/07 06:44:45;;;;;;;0.75;0.52;;;;;;;24.55;40.79;98001.50;4989825;28;20268;-69
2021/01/07 06:47:18;;;;;;;3.42;0.50;;;;;;;24.57;40.40;97999.47;4989106;28;20573;-70
2021/01/07 06:49:45;;;;;;;0.85;0.70;;;;;;;24.50;40.76;98003.88;4990606;28;20597;-69
2021/01/07 06:52:11;;;;;;;0.75;0.50;;;;;;;24.60;40.64;98004.44;4993788;28;20209;-69
2021/01/07 06:54:40;;;;;;;1.30;0.60;;;;;;;24.53;40.80;97998.13;4992834;28;20208;-70
2021/01/07 06:57:10;;;;;;;1.23;0.68;;;;;;;24.53;39.64;98006.16;4995011;28;20231;-70
2021/01/07 06:59:36;;;;;;;1.10;0.60;;;;;;;24.45;40.19;98009.75;4994684;28;20661;-70
2021/01/07 07:02:05;;;;;;;1.85;0.70;;;;;;;24.55;39.91;98012.19;4992935;28;20211;-70
2021/01/07 07:04:32;;;;;;;1.65;0.90;;;;;;;24.53;39.86;98008.81;4993821;28;20216;-69
2021/01/07 07:07:00;;;;;;;1.23;0.75;;;;;;;24.47;39.91;98015.75;4994490;28;20291;-69
2021/01/07 07:09:32;;;;;;;0.93;0.70;;;;;;;24.42;39.52;98014.63;4994737;28;20221;-69
2021/01/07 07:11:58;;;;;;;1.80;0.70;;;;;;;24.55;40.20;98018.34;4995188;28;20221;-71
2021/01/07 07:14:30;;;;;;;4.95;0.90;;;;;;;24.64;40.01;98020.94;4992978;28;20688;-72
2021/01/07 07:16:57;;;;;;;4.22;0.70;;;;;;;24.83;40.01;98020.38;4995082;28;20339;-64
2021/01/07 07:19:25;;;;;;;3.80;0.88;;;;;;;24.84;39.91;98021.19;4992353;28;20666;-64
2021/01/07 07:21:57;;;;;;;6.47;1.23;;;;;;;24.95;40.19;98023.41;4994821;28;20304;-63
2021/01/07 07:24:32;;;;;;;4.80;1.00;;;;;;;24.97;40.28;98028.56;4994011;28;20205;-63
2021/01/07 07:27:07;;;;;;;3.38;0.95;;;;;;;24.96;39.29;98030.41;4993894;28;20664;-60
2021/01/07 07:29:37;;;;;;;3.00;1.20;;;;;;;25.00;39.62;98037.03;4994811;28;20727;-64
2021/01/07 07:32:20;;;;;;;3.60;1.00;;;;;;;24.90;38.76;98025.81;4993556;28;20353;-64
2021/01/07 07:34:47;;;;;;;2.45;0.93;;;;;;;24.85;39.56;98031.72;4993845;28;20213;-64
2021/01/07 07:37:18;;;;;;;3.55;1.10;;;;;;;24.92;39.64;98031.78;4994224;28;20261;-63
2021/01/07 07:39:47;;;;;;;2.00;0.90;;;;;;;24.93;41.03;98034.28;4995003;28;20236;-65
2021/01/07 07:42:15;;;;;;;1.50;0.77;;;;;;;24.97;41.37;98029.38;4993697;28;20592;-65
2021/01/07 07:44:42;;;;;;;3.63;0.80;;;;;;;24.99;40.62;98024.69;4994283;28;20299;-64
2021/01/07 07:47:08;;;;;;;2.95;0.90;;;;;;;25.03;40.74;98025.97;4992614;28;20292;-65
2021/01/07 07:49:34;;;;;;;12.05;1.30;;;;;;;24.89;41.04;98030.31;4993656;28;20251;-65
2021/01/07 07:52:00;;;;;;;5.75;1.23;;;;;;;25.05;41.03;98034.63;4992604;28;20292;-64
2021/01/07 07:54:26;;;;;;;6.35;1.67;;;;;;;25.09;40.62;98032.41;4992330;28;20213;-63
2021/01/07 07:57:00;;;;;;;5.70;1.15;;;;;;;25.00;40.40;98030.88;4993120;28;20461;-63
2021/01/07 07:59:26;;;;;;;3.15;1.20;;;;;;;25.15;40.52;98031.66;4992681;28;20232;-64
2021/01/07 08:01:55;;;;;;;2.10;1.00;;;;;;;25.08;41.01;98038.75;4992298;28;20209;-63
2021/01/07 08:04:22;;;;;;;7.63;1.20;;;;;;;25.11;40.76;98041.91;4994787;28;20205;-64
2021/01/07 08:06:49;;;;;;;2.45;1.05;;;;;;;25.09;40.98;98049.28;4992549;28;20267;-64
2021/01/07 08:09:18;;;;;;;8.35;1.42;;;;;;;25.14;39.64;98042.56;4994250;28;20233;-64
2021/01/07 08:11:49;;;;;;;6.03;1.30;;;;;;;25.11;39.37;98047.28;4994017;28;20241;-63
2021/01/07 08:14:18;;;;;;;4.07;1.30;;;;;;;25.03;40.65;98049.19;4993856;28;20288;-64
2021/01/07 08:16:45;;;;;;;1.65;1.10;;;;;;;24.89;39.80;98048.22;4994863;28;20257;-64
2021/01/07 08:19:19;;;;;;;5.07;0.95;;;;;;;24.79;40.12;98058.34;4992464;28;20229;-65
2021/01/07 08:21:47;;;;;;;4.38;0.95;;;;;;;24.74;40.26;98053.56;4993390;28;20292;-65
2021/01/07 08:24:14;;;;;;;7.15;1.13;;;;;;;24.71;41.91;98056.59;4992445;28;20685;-64
2021/01/07 08:26:44;;;;;;;7.82;1.67;;;;;;;24.72;41.36;98053.75;4992322;28;20703;-65
2021/01/07 08:29:11;;;;;;;7.65;1.20;;;;;;;25.09;41.45;98061.84;4992498;28;20233;-65
2021/01/07 08:31:46;;;;;;;6.95;1.10;;;;;;;25.03;40.66;98066.09;4991366;28;20210;-65
2021/01/07 08:34:17;;;;;;;3.95;1.00;;;;;;;25.07;40.44;98058.53;4993175;28;20212;-64
2021/01/07 08:36:44;;;;;;;12.98;1.77;;;;;;;25.02;41.38;98064.44;4993025;28;20229;-65
2021/01/07 08:39:13;;;;;;;3.58;1.20;;;;;;;25.18;41.72;98060.72;4991818;28;20232;-65
2021/01/07 08:41:43;;;;;;;6.40;0.98;;;;;;;25.18;42.58;98067.91;4991509;28;20340;-64
2021/01/07 08:44:09;;;;;;;2.80;1.08;;;;;;;25.11;42.39;98071.34;4993005;28;20220;-65
2021/01/07 08:46:39;;;;;;;7.30;1.23;;;;;;;24.90;42.88;98063.25;4992427;28;20210;-66
2021/01/07 08:49:07;;;;;;;10.57;1.63;;;;;;;24.81;42.14;98069.69;4992221;28;20299;-65
2021/01/07 08:51:39;;;;;;;16.02;2.20;;;;;;;24.77;43.84;98063.88;4992271;28;20673;-64
2021/01/07 08:54:15;;;;;;;10.80;2.13;;;;;;;24.85;42.54;98071.00;4991512;28;20228;-64
2021/01/07 08:56:43;;;;;;;8.48;1.70;;;;;;;24.77;42.25;98069.25;4991421;28;20283;-63
2021/01/07 08:59:26;;;;;;;7.90;1.40;;;;;;;24.62;43.04;98074.56;4993056;28;20237;-64
2021/01/07 09:01:54;;;;;;;9.27;1.75;;;;;;;24.57;43.22;98068.94;4992647;28;20209;-65
2021/01/07 09:04:28;;;;;;;7.15;1.80;;;;;;;24.49;42.36;98069.81;4992279;28;20205;-63
2021/01/07 09:07:00;;;;;;;9.18;1.80;;;;;;;24.41;42.33;98061.88;4992768;28;20208;-65
2021/01/07 09:09:28;;;;;;;5.97;1.63;;;;;;;24.40;41.55;98068.25;4993217;28;20264;-61
2021/01/07 09:12:11;;;;;;;3.35;1.25;;;;;;;24.35;42.40;98066.13;4992763;28;20210;-64
2021/01/07 09:14:52;;;;;;;3.63;1.48;;;;;;;24.30;42.48;98065.84;4991753;28;20224;-63
2021/01/07 09:17:20;;;;;;;6.55;1.83;;;;;;;24.25;40.95;98060.22;4991883;28;20225;-65
2021/01/07 09:19:48;;;;;;;11.20;1.27;;;;;;;24.26;41.91;98072.53;4992491;28;20288;-65
2021/01/07 09:22:24;;;;;;;6.25;1.30;;;;;;;24.04;41.30;98062.75;4991828;28;20219;-67
2021/01/07 09:24:51;;;;;;;8.25;1.90;;;;;;;23.97;43.22;98073.31;4990773;28;20216;-64
2021/01/07 09:27:18;;;;;;;10.95;1.45;;;;;;;24.14;44.34;98069.47;4990246;28;20205;-67
2021/01/07 09:29:45;;;;;;;11.10;2.30;;;;;;;24.45;42.78;98067.69;4991853;28;20696;-67
2021/01/07 09:32:13;;;;;;;9.90;1.70;;;;;;;24.42;42.79;98068.91;4990895;28;20684;-66
2021/01/07 09:34:40;;;;;;;13.70;2.42;;;;;;;24.38;42.02;98064.91;4991215;28;20237;-66
2021/01/07 09:37:11;;;;;;;5.72;1.42;;;;;;;24.22;42.74;98063.25;4991838;28;20225;-66
2021/01/07 09:39:38;;;;;;;4.22;1.60;;;;;;;24.11;42.98;98069.00;4992250;28;20229;-66
2021/01/07 09:42:06;;;;;;;10.32;1.73;;;;;;;24.09;43.03;98069.19;4992455;28;20232;-65
2021/01/07 09:44:34;;;;;;;5.80;1.77;;;;;;;24.15;42.35;98071.16;4990610;28;20206;-65
2021/01/07 09:47:00;;;;;;;8.07;1.90;;;;;;;24.12;43.06;98063.50;4990295;28;20803;-65
2021/01/07 09:49:27;;;;;;;2.75;1.35;;;;;;;24.12;42.56;98065.34;4990291;28;20276;-65
2021/01/07 09:51:54;;;;;;;5.65;1.38;;;;;;;24.06;42.62;98068.72;4991123;28;20675;-64
2021/01/07 09:54:23;;;;;;;4.80;1.40;;;;;;;24.09;42.08;98069.19;4992321;28;20648;-65
2021/01/07 09:56:52;;;;;;;3.75;1.30;;;;;;;24.09;42.46;98065.69;4990463;28;20225;-65
2021/01/07 09:59:19;;;;;;;2.25;1.20;;;;;;;24.11;42.12;98063.66;4990560;28;20229;-65
2021/01/07 10:01:46;;;;;;;8.38;1.75;;;;;;;24.12;41.37;98060.81;4991760;28;20201;-65
2021/01/07 10:04:13;;;;;;;4.70;1.63;;;;;;;24.09;42.05;98061.19;4991496;28;20229;-65
2021/01/07 10:06:40;;;;;;;4.93;1.40;;;;;;;24.09;41.47;98060.34;4992101;28;20252;-65
2021/01/07 10:09:06;;;;;;;6.50;1.35;;;;;;;24.08;41.25;98069.38;4991299;28;20229;-65
2021/01/07 10:11:32;;;;;;;2.90;1.20;;;;;;;24.09;42.02;98066.53;4990308;28;20292;-65
2021/01/07 10:13:59;;;;;;;5.40;1.45;;;;;;;24.11;41.72;98066.34;4990553;28;20202;-65
2021/01/07 10:16:25;;;;;;;9.80;1.42;;;;;;;24.09;41.35;98063.03;4989491;28;20222;-65
2021/01/07 10:18:52;;;;;;;6.22;1.38;;;;;;;24.06;41.53;98058.03;4990594;28;20312;-65
2021/01/07 10:21:22;;;;;;;10.23;1.25;;;;;;;24.25;41.10;98060.22;4989767;28;20244;-65
2021/01/07 10:23:48;;;;;;;8.10;1.40;;;;;;;24.24;41.41;98061.22;4992103;28;20565;-65
2021/01/07 10:26:17;;;;;;;10.07;1.70;;;;;;;24.33;41.28;98060.13;4990449;28;20208;-62
2021/01/07 10:28:45;;;;;;;11.13;1.60;;;;;;;24.38;40.66;98060.44;4992189;28;20232;-65
2021/01/07 10:31:14;;;;;;;3.13;1.40;;;;;;;24.37;39.75;98066.75;4992538;28;20620;-65
2021/01/07 10:33:42;;;;;;;7.20;1.50;;;;;;;24.41;40.03;98053.88;4990502;28;20665;-64
2021/01/07 10:36:09;;;;;;;5.03;1.70;;;;;;;24.48;39.40;98056.63;4990042;28;20209;-65
2021/01/07 10:38:37;;;;;;;8.30;1.52;;;;;;;24.48;40.26;98059.31;4990218;28;20229;-65
2021/01/07 10:41:06;;;;;;;5.53;1.52;;;;;;;24.55;39.54;98054.94;4990111;28;20639;-65
2021/01/07 10:43:33;;;;;;;4.18;1.45;;;;;;;24.71;39.62;98046.75;4991335;28;20321;-64
2021/01/07 10:46:00;;;;;;;6.93;1.77;;;;;;;24.84;37.91;98042.59;4989038;28;20621;-64
2021/01/07 10:48:27;;;;;;;10.30;1.88;;;;;;;24.88;38.07;98050.06;4989319;28;20256;-65
2021/01/07 10:50:54;;;;;;;5.85;1.58;;;;;;;24.86;38.58;98043.22;4990789;28;20267;-65
2021/01/07 10:54:01;;;;;;;3.60;1.60;;;;;;;24.84;38.48;98038.06;4989665;28;20209;-65
2021/01/07 10:56:41;;;;;;;4.55;1.67;;;;;;;24.89;38.20;98034.84;4980447;28;20751;-64
2021/01/07 10:59:22;;;;;;;6.68;1.50;;;;;;;24.81;38.71;98032.25;4992244;28;20275;-64
2021/01/07 11:02:21;;;;;;;6.70;1.85;;;;;;;24.71;38.04;98030.72;4991591;28;20209;-64
2021/01/07 11:05:12;;;;;;;8.80;1.90;;;;;;;24.79;38.47;98031.63;4984389;28;20730;-63
2021/01/07 11:08:00;;;;;;;4.43;1.40;;;;;;;25.04;39.25;98027.63;4991368;28;20216;-62
2021/01/07 11:10:28;;;;;;;8.98;1.75;;;;;;;25.04;38.31;98016.91;4991295;28;20675;-64
2021/01/07 11:12:58;;;;;;;9.00;1.50;;;;;;;25.02;38.28;98010.94;4989279;28;20942;-65
2021/01/07 11:15:27;;;;;;;16.90;2.10;;;;;;;25.08;38.45;98015.53;4991240;28;20210;-66
2021/01/07 11:17:58;;;;;;;9.93;1.80;;;;;;;25.15;39.76;98009.41;4990235;28;20229;-65
2021/01/07 11:20:27;;;;;;;10.15;1.77;;;;;;;25.22;38.52;98010.34;4991407;28;20252;-65
2021/01/07 11:22:55;;;;;;;3.42;1.30;;;;;;;25.16;38.33;98009.22;4991242;28;20216;-67
2021/01/07 11:25:22;;;;;;;8.52;1.98;;;;;;;25.18;37.98;98001.03;4992213;28;20245;-66
2021/01/07 11:27:50;;;;;;;10.30;1.92;;;;;;;25.21;38.70;98004.16;4991368;28;20649;-66
2021/01/07 11:30:20;;;;;;;9.20;1.58;;;;;;;25.23;39.36;97996.78;4990899;28;20740;-64
2021/01/07 11:32:47;;;;;;;7.60;1.42;;;;;;;25.31;39.22;97995.84;4991781;28;20201;-66
2021/01/07 11:35:14;;;;;;;8.80;1.50;;;;;;;25.31;39.37;97990.50;4991153;28;20201;-63